createdAt,value
2022-12-27T00:05:43.442Z,70.29
2022-12-27T00:18:35.115Z,70.10
2022-12-27T00:25:34.031Z,70.16
2022-12-27T00:31:00.998Z,70.37
2022-12-27T00:43:14.608Z,70.79
2022-12-27T00:49:19.192Z,70.46
2022-12-27T00:54:58.558Z,70.19
2022-12-27T01:04:08.620Z,70.08
2022-12-27T01:08:11.598Z,70.04
2022-12-27T01:14:47.685Z,70.19
2022-12-27T01:20:49.786Z,69.88
2022-12-27T01:26:50.036Z,69.84
2022-12-27T01:33:31.108Z,69.51
2022-12-27T01:40:07.020Z,69.20
2022-12-27T01:46:40.407Z,68.43
2022-12-27T01:52:54.818Z,68.41
2022-12-27T01:58:53.120Z,68.19
2022-12-27T02:11:46.535Z,68.28
2022-12-27T02:18:13.102Z,68.24
2022-12-27T02:49:21.602Z,67.81
2022-12-27T03:02:59.788Z,67.01
2022-12-27T03:23:24.714Z,67.13
2022-12-27T03:29:45.638Z,67.25
2022-12-27T03:43:07.235Z,67.19
2022-12-27T03:49:57.089Z,67.22
2022-12-27T04:13:12.108Z,67.78
2022-12-27T04:25:59.569Z,68.26
2022-12-27T04:41:03.398Z,68.92
2022-12-27T05:22:21.653Z,67.27
2022-12-27T05:36:27.670Z,65.42
2022-12-27T09:00:04.914Z,58.82
2022-12-27T09:13:00.867Z,58.88
2022-12-27T09:31:28.871Z,56.64
2022-12-27T09:38:04.988Z,56.42
2022-12-27T09:58:46.260Z,56.50
2022-12-27T10:05:20.309Z,56.40
2022-12-27T10:11:47.487Z,56.44
2022-12-27T10:17:53.107Z,55.70
2022-12-27T10:24:05.549Z,54.90
2022-12-27T10:30:28.618Z,54.84
2022-12-27T10:36:00.280Z,55.07
2022-12-27T10:42:20.564Z,55.32
2022-12-27T10:55:31.920Z,53.73
2022-12-27T11:02:03.119Z,54.20
2022-12-27T11:08:03.867Z,54.38
2022-12-27T11:14:28.275Z,53.92
2022-12-27T11:20:18.559Z,53.33
2022-12-27T11:26:34.439Z,53.06
2022-12-27T11:32:51.367Z,52.83
2022-12-27T11:39:24.835Z,53.25
2022-12-27T11:45:22.761Z,52.93
2022-12-27T11:51:50.128Z,52.83
2022-12-27T11:57:51.191Z,52.39
2022-12-27T12:15:09.677Z,52.55
2022-12-27T12:40:03.211Z,50.52
2022-12-27T13:17:48.279Z,52.95
2022-12-27T13:24:30.167Z,52.83
2022-12-27T13:30:34.252Z,52.73
2022-12-27T13:43:45.068Z,52.58
2022-12-27T13:50:18.122Z,52.56
2022-12-27T14:01:56.141Z,52.86
2022-12-27T14:08:12.510Z,53.15
2022-12-27T14:14:09.538Z,52.84
2022-12-27T14:34:30.940Z,51.58
2022-12-27T14:40:21.352Z,51.17
2022-12-27T14:46:18.123Z,50.85
2022-12-27T14:58:16.392Z,49.67
2022-12-27T15:04:01.663Z,49.42
2022-12-27T15:09:47.212Z,49.16
2022-12-27T15:15:51.528Z,49.20
2022-12-27T15:22:14.757Z,48.62
2022-12-27T15:28:34.189Z,48.49
2022-12-27T15:34:15.814Z,49.22
2022-12-27T15:40:16.473Z,49.32
2022-12-27T15:46:32.481Z,49.85
2022-12-27T15:53:02.004Z,50.14
2022-12-27T15:59:06.428Z,50.43
2022-12-27T16:05:48.961Z,50.44
2022-12-27T16:11:52.143Z,50.60
2022-12-27T16:18:18.095Z,50.56
2022-12-27T16:24:57.758Z,51.03
2022-12-27T16:31:09.299Z,51.34
2022-12-27T16:37:32.613Z,51.50
2022-12-27T16:44:01.602Z,52.75
2022-12-27T16:50:24.541Z,53.56
2022-12-27T16:56:42.465Z,51.28
2022-12-27T17:03:01.892Z,51.64
2022-12-27T17:09:10.345Z,52.08
2022-12-27T17:15:24.925Z,52.60
2022-12-27T17:21:41.775Z,52.73
2022-12-27T17:28:00.855Z,53.13
2022-12-27T17:33:48.158Z,53.62
2022-12-27T17:40:12.782Z,54.32
2022-12-27T17:46:29.902Z,54.35
2022-12-27T17:52:25.389Z,54.07
2022-12-27T17:58:33.576Z,54.50
2022-12-27T18:24:48.303Z,54.44
2022-12-27T18:30:58.842Z,54.83
2022-12-27T18:58:32.049Z,56.07
2022-12-27T19:04:33.477Z,53.75
2022-12-27T19:18:33.351Z,53.95
2022-12-27T19:24:05.870Z,54.62
2022-12-27T19:30:10.689Z,54.39
2022-12-27T19:36:32.564Z,54.34
2022-12-27T19:43:04.428Z,55.00
2022-12-27T19:57:19.346Z,55.22
2022-12-27T20:03:33.573Z,55.21
2022-12-27T20:09:45.425Z,55.23
2022-12-27T20:16:17.716Z,55.54
2022-12-27T20:22:58.008Z,55.86
2022-12-27T20:36:33.219Z,55.64
2022-12-27T20:42:28.164Z,55.99
2022-12-27T21:08:49.002Z,56.19
2022-12-27T21:15:31.132Z,56.23
2022-12-27T21:20:49.418Z,56.34
2022-12-27T21:26:33.986Z,56.47
2022-12-27T21:32:30.540Z,56.44
2022-12-27T21:38:47.308Z,56.34
2022-12-27T21:44:35.437Z,56.31
2022-12-27T21:50:49.742Z,56.46
2022-12-27T21:56:46.088Z,56.82
2022-12-27T22:03:10.675Z,56.25
2022-12-27T22:08:55.361Z,56.68
2022-12-27T22:15:19.697Z,56.57
2022-12-27T22:21:27.226Z,56.96
2022-12-27T22:34:39.881Z,57.26
2022-12-27T22:40:56.655Z,57.11
2022-12-27T22:47:27.674Z,57.00
2022-12-27T22:53:42.840Z,57.22
2022-12-27T22:59:48.881Z,57.18
2022-12-27T23:12:46.249Z,56.94
2022-12-27T23:25:39.774Z,57.17
2022-12-27T23:30:59.449Z,56.96
2022-12-27T23:37:21.145Z,56.89
2022-12-27T23:42:07.553Z,56.80
2022-12-27T23:54:49.738Z,56.62
